sensor_id;sensor_type;location;lat;lon;timestamp;P1;durP1;ratioP1;P2;durP2;ratioP2
16994;SDS011;8614;48.522;9.206;2023-01-09T03:00:44;9.60;;;9.10;;
16994;SDS011;8614;48.522;9.206;2023-01-09T03:03:22;10.07;;;9.37;;
16994;SDS011;8614;48.522;9.206;2023-01-09T03:05:57;9.90;;;9.40;;
16994;SDS011;8614;48.522;9.206;2023-01-09T03:08:32;10.90;;;10.00;;
16994;SDS011;8614;48.522;9.206;2023-01-09T03:11:05;10.00;;;9.50;;
16994;SDS011;8614;48.522;9.206;2023-01-09T03:13:34;10.00;;;9.50;;
16994;SDS011;8614;48.522;9.206;2023-01-09T03:16:08;9.70;;;9.20;;
16994;SDS011;8614;48.522;9.206;2023-01-09T03:18:38;9.80;;;9.30;;
16994;SDS011;8614;48.522;9.206;2023-01-09T03:21:07;9.60;;;9.10;;
16994;SDS011;8614;48.522;9.206;2023-01-09T03:23:46;10.00;;;9.50;;
16994;SDS011;8614;48.522;9.206;2023-01-09T03:26:14;9.70;;;9.20;;
16994;SDS011;8614;48.522;9.206;2023-01-09T03:28:41;9.87;;;9.20;;
16994;SDS011;8614;48.522;9.206;2023-01-09T03:31:10;9.67;;;9.17;;
16994;SDS011;8614;48.522;9.206;2023-01-09T03:33:37;9.67;;;9.17;;
16994;SDS011;8614;48.522;9.206;2023-01-09T03:36:04;9.90;;;9.40;;
16994;SDS011;8614;48.522;9.206;2023-01-09T03:38:31;9.80;;;9.20;;
16994;SDS011;8614;48.522;9.206;2023-01-09T03:40:58;9.73;;;9.10;;
16994;SDS011;8614;48.522;9.206;2023-01-09T03:43:25;9.80;;;9.30;;
16994;SDS011;8614;48.522;9.206;2023-01-09T03:45:52;9.70;;;9.20;;
16994;SDS011;8614;48.522;9.206;2023-01-09T03:48:20;10.00;;;9.50;;
16994;SDS011;8614;48.522;9.206;2023-01-09T03:50:47;9.70;;;9.20;;
16994;SDS011;8614;48.522;9.206;2023-01-09T03:53:14;9.67;;;9.17;;
16994;SDS011;8614;48.522;9.206;2023-01-09T03:55:42;10.07;;;9.47;;
16994;SDS011;8614;48.522;9.206;2023-01-09T03:58:11;9.60;;;9.10;;
16994;SDS011;8614;48.522;9.206;2023-01-09T04:00:38;10.47;;;9.97;;
16994;SDS011;8614;48.522;9.206;2023-01-09T04:03:05;10.00;;;9.50;;
16994;SDS011;8614;48.522;9.206;2023-01-09T04:05:34;10.10;;;9.60;;
16994;SDS011;8614;48.522;9.206;2023-01-09T04:08:01;10.47;;;9.97;;
16994;SDS011;8614;48.522;9.206;2023-01-09T04:10:28;10.70;;;10.20;;
16994;SDS011;8614;48.522;9.206;2023-01-09T04:12:55;10.77;;;10.17;;
16994;SDS011;8614;48.522;9.206;2023-01-09T04:15:22;11.23;;;10.63;;
16994;SDS011;8614;48.522;9.206;2023-01-09T04:17:49;10.30;;;9.80;;
16994;SDS011;8614;48.522;9.206;2023-01-09T04:20:16;10.70;;;10.10;;
16994;SDS011;8614;48.522;9.206;2023-01-09T04:22:45;10.40;;;9.90;;
16994;SDS011;8614;48.522;9.206;2023-01-09T04:25:11;10.53;;;10.03;;
16994;SDS011;8614;48.522;9.206;2023-01-09T04:27:38;10.70;;;10.20;;
16994;SDS011;8614;48.522;9.206;2023-01-09T04:30:06;11.03;;;10.43;;
16994;SDS011;8614;48.522;9.206;2023-01-09T04:32:33;10.53;;;9.93;;
16994;SDS011;8614;48.522;9.206;2023-01-09T04:35:00;10.90;;;10.30;;
16994;SDS011;8614;48.522;9.206;2023-01-09T04:37:27;11.00;;;10.40;;
16994;SDS011;8614;48.522;9.206;2023-01-09T04:39:55;11.00;;;10.40;;
16994;SDS011;8614;48.522;9.206;2023-01-09T04:42:22;10.63;;;10.13;;
16994;SDS011;8614;48.522;9.206;2023-01-09T04:44:49;10.80;;;10.30;;
16994;SDS011;8614;48.522;9.206;2023-01-09T04:47:18;11.30;;;10.60;;
16994;SDS011;8614;48.522;9.206;2023-01-09T04:49:45;11.27;;;10.67;;
16994;SDS011;8614;48.522;9.206;2023-01-09T04:52:12;11.50;;;10.90;;
16994;SDS011;8614;48.522;9.206;2023-01-09T04:54:38;11.30;;;10.70;;
16994;SDS011;8614;48.522;9.206;2023-01-09T04:57:06;11.33;;;10.73;;
16994;SDS011;8614;48.522;9.206;2023-01-09T04:59:33;11.90;;;11.30;;
16994;SDS011;8614;48.522;9.206;2023-01-09T05:02:00;11.70;;;11.10;;
16994;SDS011;8614;48.522;9.206;2023-01-09T05:04:27;11.37;;;10.77;;
16994;SDS011;8614;48.522;9.206;2023-01-09T05:06:54;11.90;;;11.30;;
16994;SDS011;8614;48.522;9.206;2023-01-09T05:09:21;12.30;;;11.70;;
16994;SDS011;8614;48.522;9.206;2023-01-09T05:11:48;12.50;;;11.90;;
16994;SDS011;8614;48.522;9.206;2023-01-09T05:14:17;12.50;;;11.90;;
16994;SDS011;8614;48.522;9.206;2023-01-09T05:16:44;12.43;;;11.83;;
16994;SDS011;8614;48.522;9.206;2023-01-09T05:19:10;12.80;;;12.20;;
16994;SDS011;8614;48.522;9.206;2023-01-09T05:21:37;12.37;;;11.77;;
16994;SDS011;8614;48.522;9.206;2023-01-09T05:24:04;12.80;;;12.20;;
16994;SDS011;8614;48.522;9.206;2023-01-09T05:26:31;12.57;;;11.97;;
16994;SDS011;8614;48.522;9.206;2023-01-09T05:28:58;12.80;;;12.10;;
16994;SDS011;8614;48.522;9.206;2023-01-09T05:31:26;12.93;;;12.20;;
16994;SDS011;8614;48.522;9.206;2023-01-09T05:33:53;12.87;;;12.17;;
16994;SDS011;8614;48.522;9.206;2023-01-09T05:36:23;12.67;;;12.07;;
16994;SDS011;8614;48.522;9.206;2023-01-09T05:38:50;12.70;;;12.10;;
16994;SDS011;8614;48.522;9.206;2023-01-09T05:41:17;13.00;;;12.20;;
16994;SDS011;8614;48.522;9.206;2023-01-09T05:43:43;12.83;;;12.13;;
16994;SDS011;8614;48.522;9.206;2023-01-09T05:46:10;13.10;;;12.30;;
16994;SDS011;8614;48.522;9.206;2023-01-09T05:48:39;12.67;;;11.97;;
16994;SDS011;8614;48.522;9.206;2023-01-09T05:51:05;12.47;;;11.87;;
16994;SDS011;8614;48.522;9.206;2023-01-09T05:53:32;12.90;;;12.10;;
16994;SDS011;8614;48.522;9.206;2023-01-09T05:55:59;12.67;;;12.07;;
16994;SDS011;8614;48.522;9.206;2023-01-09T05:58:26;12.90;;;12.23;;
16994;SDS011;8614;48.522;9.206;2023-01-09T06:00:52;13.10;;;12.40;;
16994;SDS011;8614;48.522;9.206;2023-01-09T06:03:19;12.57;;;11.97;;
16994;SDS011;8614;48.522;9.206;2023-01-09T06:05:47;12.50;;;11.90;;
16994;SDS011;8614;48.522;9.206;2023-01-09T06:08:15;12.67;;;12.07;;
16994;SDS011;8614;48.522;9.206;2023-01-09T06:10:42;12.60;;;12.00;;
16994;SDS011;8614;48.522;9.206;2023-01-09T06:13:10;12.53;;;11.90;;
16994;SDS011;8614;48.522;9.206;2023-01-09T06:15:37;12.57;;;11.97;;
16994;SDS011;8614;48.522;9.206;2023-01-09T06:18:04;12.43;;;11.83;;
16994;SDS011;8614;48.522;9.206;2023-01-09T06:20:30;12.53;;;11.93;;
16994;SDS011;8614;48.522;9.206;2023-01-09T06:22:59;12.33;;;11.73;;
16994;SDS011;8614;48.522;9.206;2023-01-09T06:25:26;12.70;;;12.10;;
16994;SDS011;8614;48.522;9.206;2023-01-09T06:27:53;12.50;;;11.90;;
16994;SDS011;8614;48.522;9.206;2023-01-09T06:30:20;13.30;;;12.57;;
16994;SDS011;8614;48.522;9.206;2023-01-09T06:32:47;12.30;;;11.63;;
16994;SDS011;8614;48.522;9.206;2023-01-09T06:35:14;12.47;;;11.77;;
16994;SDS011;8614;48.522;9.206;2023-01-09T06:37:44;12.77;;;12.03;;
16994;SDS011;8614;48.522;9.206;2023-01-09T06:40:13;12.40;;;11.70;;
16994;SDS011;8614;48.522;9.206;2023-01-09T06:42:43;13.03;;;12.33;;
16994;SDS011;8614;48.522;9.206;2023-01-09T06:45:10;13.27;;;12.57;;
16994;SDS011;8614;48.522;9.206;2023-01-09T06:47:37;12.17;;;11.57;;
16994;SDS011;8614;48.522;9.206;2023-01-09T06:50:05;12.23;;;11.63;;
16994;SDS011;8614;48.522;9.206;2023-01-09T06:52:33;12.37;;;11.73;;
16994;SDS011;8614;48.522;9.206;2023-01-09T06:55:00;13.40;;;12.40;;
16994;SDS011;8614;48.522;9.206;2023-01-09T06:57:28;12.63;;;12.00;;
16994;SDS011;8614;48.522;9.206;2023-01-09T06:59:55;13.53;;;12.60;;
16994;SDS011;8614;48.522;9.206;2023-01-09T07:02:22;13.10;;;12.40;;
16994;SDS011;8614;48.522;9.206;2023-01-09T07:04:49;13.40;;;12.40;;
16994;SDS011;8614;48.522;9.206;2023-01-09T07:07:16;12.50;;;11.80;;
16994;SDS011;8614;48.522;9.206;2023-01-09T07:09:44;12.40;;;11.70;;
16994;SDS011;8614;48.522;9.206;2023-01-09T07:12:10;12.27;;;11.67;;
16994;SDS011;8614;48.522;9.206;2023-01-09T07:14:40;12.43;;;11.73;;
16994;SDS011;8614;48.522;9.206;2023-01-09T07:17:07;12.37;;;11.77;;
16994;SDS011;8614;48.522;9.206;2023-01-09T07:19:35;12.23;;;11.63;;
16994;SDS011;8614;48.522;9.206;2023-01-09T07:22:01;12.67;;;11.87;;
16994;SDS011;8614;48.522;9.206;2023-01-09T07:24:28;12.30;;;11.50;;
16994;SDS011;8614;48.522;9.206;2023-01-09T07:26:55;11.90;;;11.30;;
16994;SDS011;8614;48.522;9.206;2023-01-09T07:29:22;12.30;;;11.60;;
16994;SDS011;8614;48.522;9.206;2023-01-09T07:31:50;12.53;;;11.43;;
16994;SDS011;8614;48.522;9.206;2023-01-09T07:34:17;12.00;;;11.20;;
16994;SDS011;8614;48.522;9.206;2023-01-09T07:36:43;12.57;;;11.87;;
16994;SDS011;8614;48.522;9.206;2023-01-09T07:39:12;12.10;;;11.30;;
16994;SDS011;8614;48.522;9.206;2023-01-09T07:41:39;11.70;;;10.90;;
16994;SDS011;8614;48.522;9.206;2023-01-09T07:44:08;11.43;;;10.73;;
16994;SDS011;8614;48.522;9.206;2023-01-09T07:46:35;11.47;;;10.87;;
16994;SDS011;8614;48.522;9.206;2023-01-09T07:49:03;11.43;;;10.80;;
16994;SDS011;8614;48.522;9.206;2023-01-09T07:51:30;11.70;;;11.00;;
16994;SDS011;8614;48.522;9.206;2023-01-09T07:53:57;11.40;;;10.70;;
16994;SDS011;8614;48.522;9.206;2023-01-09T07:56:24;11.37;;;10.67;;
16994;SDS011;8614;48.522;9.206;2023-01-09T07:58:51;11.37;;;10.77;;
16994;SDS011;8614;48.522;9.206;2023-01-09T08:01:18;11.90;;;11.13;;
16994;SDS011;8614;48.522;9.206;2023-01-09T08:03:45;12.47;;;11.67;;
16994;SDS011;8614;48.522;9.206;2023-01-09T08:06:13;12.00;;;11.30;;
16994;SDS011;8614;48.522;9.206;2023-01-09T08:08:40;12.13;;;11.40;;
16994;SDS011;8614;48.522;9.206;2023-01-09T08:11:07;12.33;;;11.63;;
16994;SDS011;8614;48.522;9.206;2023-01-09T08:13:34;12.20;;;11.50;;
16994;SDS011;8614;48.522;9.206;2023-01-09T08:16:01;12.07;;;11.47;;
16994;SDS011;8614;48.522;9.206;2023-01-09T08:18:28;12.50;;;11.80;;
16994;SDS011;8614;48.522;9.206;2023-01-09T08:20:55;12.30;;;11.60;;
16994;SDS011;8614;48.522;9.206;2023-01-09T08:23:23;12.70;;;11.93;;
16994;SDS011;8614;48.522;9.206;2023-01-09T08:25:50;12.50;;;11.70;;
16994;SDS011;8614;48.522;9.206;2023-01-09T08:28:18;12.53;;;11.60;;
16994;SDS011;8614;48.522;9.206;2023-01-09T08:30:45;12.50;;;11.70;;
16994;SDS011;8614;48.522;9.206;2023-01-09T08:33:12;12.33;;;11.63;;
16994;SDS011;8614;48.522;9.206;2023-01-09T08:35:39;12.63;;;11.73;;
16994;SDS011;8614;48.522;9.206;2023-01-09T08:38:07;12.03;;;11.30;;
16994;SDS011;8614;48.522;9.206;2023-01-09T08:40:35;12.13;;;11.33;;
16994;SDS011;8614;48.522;9.206;2023-01-09T08:43:02;12.40;;;11.60;;
16994;SDS011;8614;48.522;9.206;2023-01-09T08:45:52;12.20;;;11.50;;
16994;SDS011;8614;48.522;9.206;2023-01-09T08:48:37;12.07;;;11.27;;
16994;SDS011;8614;48.522;9.206;2023-01-09T08:51:03;12.30;;;11.60;;
16994;SDS011;8614;48.522;9.206;2023-01-09T08:53:30;12.47;;;11.67;;
16994;SDS011;8614;48.522;9.206;2023-01-09T08:55:59;11.80;;;11.00;;
16994;SDS011;8614;48.522;9.206;2023-01-09T08:58:28;11.70;;;10.90;;
16994;SDS011;8614;48.522;9.206;2023-01-09T09:00:55;11.70;;;11.00;;
16994;SDS011;8614;48.522;9.206;2023-01-09T09:03:23;11.90;;;11.10;;
16994;SDS011;8614;48.522;9.206;2023-01-09T09:05:50;11.83;;;11.13;;
16994;SDS011;8614;48.522;9.206;2023-01-09T09:08:17;12.23;;;11.43;;
16994;SDS011;8614;48.522;9.206;2023-01-09T09:10:44;11.93;;;11.13;;
16994;SDS011;8614;48.522;9.206;2023-01-09T09:13:12;12.13;;;11.33;;
16994;SDS011;8614;48.522;9.206;2023-01-09T09:15:39;11.60;;;10.90;;
16994;SDS011;8614;48.522;9.206;2023-01-09T09:18:06;10.17;;;9.37;;
16994;SDS011;8614;48.522;9.206;2023-01-09T09:20:33;11.30;;;10.60;;
16994;SDS011;8614;48.522;9.206;2023-01-09T09:23:01;10.60;;;9.90;;
16994;SDS011;8614;48.522;9.206;2023-01-09T09:25:28;11.50;;;10.90;;
16994;SDS011;8614;48.522;9.206;2023-01-09T09:27:55;5.00;;;4.60;;
16994;SDS011;8614;48.522;9.206;2023-01-09T09:30:26;9.80;;;9.10;;
16994;SDS011;8614;48.522;9.206;2023-01-09T09:32:53;11.33;;;10.20;;
16994;SDS011;8614;48.522;9.206;2023-01-09T09:35:20;11.20;;;10.40;;
16994;SDS011;8614;48.522;9.206;2023-01-09T09:37:53;12.20;;;11.50;;
16994;SDS011;8614;48.522;9.206;2023-01-09T09:40:25;11.97;;;10.97;;
16994;SDS011;8614;48.522;9.206;2023-01-09T09:43:10;11.63;;;10.83;;
16994;SDS011;8614;48.522;9.206;2023-01-09T09:46:16;11.40;;;10.60;;
16994;SDS011;8614;48.522;9.206;2023-01-09T09:48:53;10.80;;;10.20;;
16994;SDS011;8614;48.522;9.206;2023-01-09T09:51:28;10.60;;;9.90;;
16994;SDS011;8614;48.522;9.206;2023-01-09T09:54:01;10.90;;;10.10;;
16994;SDS011;8614;48.522;9.206;2023-01-09T09:56:33;11.17;;;10.37;;
16994;SDS011;8614;48.522;9.206;2023-01-09T09:59:08;10.60;;;10.00;;
16994;SDS011;8614;48.522;9.206;2023-01-09T10:01:41;10.90;;;10.20;;
16994;SDS011;8614;48.522;9.206;2023-01-09T10:04:13;11.40;;;10.40;;
16994;SDS011;8614;48.522;9.206;2023-01-09T10:06:43;11.03;;;10.33;;
16994;SDS011;8614;48.522;9.206;2023-01-09T10:09:14;11.40;;;10.60;;
16994;SDS011;8614;48.522;9.206;2023-01-09T10:11:48;11.00;;;10.30;;
16994;SDS011;8614;48.522;9.206;2023-01-09T10:14:20;11.30;;;10.60;;
16994;SDS011;8614;48.522;9.206;2023-01-09T10:16:59;11.67;;;10.97;;
16994;SDS011;8614;48.522;9.206;2023-01-09T10:19:50;12.23;;;11.33;;
16994;SDS011;8614;48.522;9.206;2023-01-09T10:22:31;12.10;;;11.30;;
16994;SDS011;8614;48.522;9.206;2023-01-09T10:25:09;12.47;;;11.67;;
16994;SDS011;8614;48.522;9.206;2023-01-09T10:27:49;10.90;;;10.20;;
16994;SDS011;8614;48.522;9.206;2023-01-09T10:30:38;11.37;;;10.40;;
16994;SDS011;8614;48.522;9.206;2023-01-09T10:33:14;11.20;;;10.53;;
16994;SDS011;8614;48.522;9.206;2023-01-09T10:36:03;10.60;;;9.90;;
16994;SDS011;8614;48.522;9.206;2023-01-09T10:38:44;10.10;;;9.40;;
16994;SDS011;8614;48.522;9.206;2023-01-09T10:41:15;10.13;;;9.50;;
16994;SDS011;8614;48.522;9.206;2023-01-09T10:43:48;10.43;;;9.73;;
16994;SDS011;8614;48.522;9.206;2023-01-09T10:46:21;10.80;;;9.90;;
16994;SDS011;8614;48.522;9.206;2023-01-09T10:48:53;10.57;;;9.83;;
16994;SDS011;8614;48.522;9.206;2023-01-09T10:51:26;10.37;;;9.67;;
16994;SDS011;8614;48.522;9.206;2023-01-09T10:53:57;10.83;;;10.00;;
16994;SDS011;8614;48.522;9.206;2023-01-09T10:56:24;10.47;;;9.60;;
16994;SDS011;8614;48.522;9.206;2023-01-09T10:58:53;10.33;;;9.60;;
16994;SDS011;8614;48.522;9.206;2023-01-09T11:01:23;10.33;;;9.53;;
16994;SDS011;8614;48.522;9.206;2023-01-09T11:03:52;9.97;;;9.33;;
16994;SDS011;8614;48.522;9.206;2023-01-09T11:06:23;10.27;;;9.67;;
16994;SDS011;8614;48.522;9.206;2023-01-09T11:09:02;10.50;;;9.70;;
16994;SDS011;8614;48.522;9.206;2023-01-09T11:11:31;10.87;;;10.17;;
16994;SDS011;8614;48.522;9.206;2023-01-09T11:14:03;10.73;;;10.03;;
16994;SDS011;8614;48.522;9.206;2023-01-09T11:16:32;10.93;;;10.13;;
16994;SDS011;8614;48.522;9.206;2023-01-09T11:19:01;11.47;;;10.53;;
16994;SDS011;8614;48.522;9.206;2023-01-09T11:21:30;10.87;;;10.17;;
16994;SDS011;8614;48.522;9.206;2023-01-09T11:24:21;11.23;;;10.53;;
16994;SDS011;8614;48.522;9.206;2023-01-09T11:26:53;10.97;;;10.00;;
16994;SDS011;8614;48.522;9.206;2023-01-09T11:32:41;10.43;;;9.70;;
16994;SDS011;8614;48.522;9.206;2023-01-09T11:35:16;10.50;;;9.80;;
16994;SDS011;8614;48.522;9.206;2023-01-09T11:37:46;11.30;;;10.47;;
16994;SDS011;8614;48.522;9.206;2023-01-09T11:40:16;10.83;;;10.03;;
16994;SDS011;8614;48.522;9.206;2023-01-09T11:43:01;11.30;;;10.50;;
16994;SDS011;8614;48.522;9.206;2023-01-09T11:45:31;11.60;;;10.70;;
16994;SDS011;8614;48.522;9.206;2023-01-09T11:48:00;11.80;;;11.00;;
16994;SDS011;8614;48.522;9.206;2023-01-09T11:50:29;7.72;;;7.03;;
16994;SDS011;8614;48.522;9.206;2023-01-09T11:53:13;7.40;;;6.80;;
16994;SDS011;8614;48.522;9.206;2023-01-09T11:55:42;11.03;;;10.27;;
16994;SDS011;8614;48.522;9.206;2023-01-09T11:58:11;9.23;;;8.52;;
16994;SDS011;8614;48.522;9.206;2023-01-09T12:00:43;10.97;;;10.33;;
16994;SDS011;8614;48.522;9.206;2023-01-09T12:03:22;11.27;;;10.55;;
16994;SDS011;8614;48.522;9.206;2023-01-09T12:06:07;10.73;;;9.87;;
16994;SDS011;8614;48.522;9.206;2023-01-09T12:08:42;10.60;;;9.90;;
16994;SDS011;8614;48.522;9.206;2023-01-09T12:11:20;10.97;;;10.27;;
16994;SDS011;8614;48.522;9.206;2023-01-09T12:13:59;10.40;;;9.60;;
16994;SDS011;8614;48.522;9.206;2023-01-09T12:16:34;10.63;;;9.93;;
16994;SDS011;8614;48.522;9.206;2023-01-09T12:19:10;10.90;;;10.00;;
16994;SDS011;8614;48.522;9.206;2023-01-09T12:21:52;10.80;;;10.10;;
16994;SDS011;8614;48.522;9.206;2023-01-09T12:24:38;11.03;;;10.17;;
16994;SDS011;8614;48.522;9.206;2023-01-09T12:27:24;10.90;;;10.13;;
16994;SDS011;8614;48.522;9.206;2023-01-09T12:30:01;10.40;;;9.70;;
16994;SDS011;8614;48.522;9.206;2023-01-09T12:32:44;10.57;;;9.77;;
16994;SDS011;8614;48.522;9.206;2023-01-09T12:35:21;10.30;;;9.70;;
16994;SDS011;8614;48.522;9.206;2023-01-09T12:38:01;10.03;;;9.43;;
16994;SDS011;8614;48.522;9.206;2023-01-09T12:43:42;10.57;;;9.63;;
16994;SDS011;8614;48.522;9.206;2023-01-09T12:46:18;10.13;;;9.43;;
16994;SDS011;8614;48.522;9.206;2023-01-09T12:48:50;10.17;;;9.30;;
16994;SDS011;8614;48.522;9.206;2023-01-09T12:51:30;9.47;;;8.87;;
16994;SDS011;8614;48.522;9.206;2023-01-09T12:54:04;10.00;;;9.30;;
16994;SDS011;8614;48.522;9.206;2023-01-09T12:56:36;9.90;;;9.30;;
16994;SDS011;8614;48.522;9.206;2023-01-09T12:59:09;9.70;;;9.10;;
16994;SDS011;8614;48.522;9.206;2023-01-09T13:01:54;9.30;;;8.80;;
16994;SDS011;8614;48.522;9.206;2023-01-09T13:04:29;10.07;;;9.30;;
16994;SDS011;8614;48.522;9.206;2023-01-09T13:07:00;9.50;;;8.90;;
16994;SDS011;8614;48.522;9.206;2023-01-09T13:09:36;9.30;;;8.70;;
16994;SDS011;8614;48.522;9.206;2023-01-09T13:12:07;9.70;;;9.00;;
16994;SDS011;8614;48.522;9.206;2023-01-09T13:14:38;9.93;;;9.13;;
16994;SDS011;8614;48.522;9.206;2023-01-09T13:17:13;9.30;;;8.80;;
16994;SDS011;8614;48.522;9.206;2023-01-09T13:19:44;9.90;;;9.20;;
16994;SDS011;8614;48.522;9.206;2023-01-09T13:22:11;9.37;;;8.77;;
16994;SDS011;8614;48.522;9.206;2023-01-09T13:24:44;10.00;;;9.30;;
16994;SDS011;8614;48.522;9.206;2023-01-09T13:27:22;10.03;;;9.23;;
16994;SDS011;8614;48.522;9.206;2023-01-09T13:29:53;9.83;;;9.23;;
16994;SDS011;8614;48.522;9.206;2023-01-09T13:32:35;9.27;;;8.77;;
16994;SDS011;8614;48.522;9.206;2023-01-09T13:35:10;9.50;;;9.00;;
16994;SDS011;8614;48.522;9.206;2023-01-09T13:37:37;9.80;;;9.10;;
16994;SDS011;8614;48.522;9.206;2023-01-09T13:40:17;10.10;;;9.50;;
16994;SDS011;8614;48.522;9.206;2023-01-09T13:42:53;9.60;;;9.00;;
16994;SDS011;8614;48.522;9.206;2023-01-09T13:45:22;9.57;;;8.97;;
16994;SDS011;8614;48.522;9.206;2023-01-09T13:54:17;8.80;;;8.30;;
16994;SDS011;8614;48.522;9.206;2023-01-09T13:57:25;9.70;;;9.20;;
16994;SDS011;8614;48.522;9.206;2023-01-09T13:59:57;9.00;;;8.50;;
16994;SDS011;8614;48.522;9.206;2023-01-09T14:08:27;9.97;;;9.40;;
16994;SDS011;8614;48.522;9.206;2023-01-09T14:10:56;10.90;;;10.30;;
16994;SDS011;8614;48.522;9.206;2023-01-09T14:13:26;10.50;;;9.90;;
16994;SDS011;8614;48.522;9.206;2023-01-09T14:16:00;10.87;;;10.27;;
16994;SDS011;8614;48.522;9.206;2023-01-09T14:18:31;10.60;;;10.10;;
16994;SDS011;8614;48.522;9.206;2023-01-09T14:21:00;11.00;;;10.40;;
16994;SDS011;8614;48.522;9.206;2023-01-09T14:23:29;10.50;;;9.90;;
16994;SDS011;8614;48.522;9.206;2023-01-09T14:25:58;10.90;;;10.20;;
16994;SDS011;8614;48.522;9.206;2023-01-09T14:28:28;10.60;;;10.00;;
16994;SDS011;8614;48.522;9.206;2023-01-09T14:31:03;10.27;;;9.77;;
16994;SDS011;8614;48.522;9.206;2023-01-09T14:33:32;9.30;;;8.80;;
16994;SDS011;8614;48.522;9.206;2023-01-09T14:36:02;9.30;;;8.80;;
16994;SDS011;8614;48.522;9.206;2023-01-09T14:38:35;9.90;;;9.40;;
16994;SDS011;8614;48.522;9.206;2023-01-09T14:41:08;10.00;;;9.30;;
16994;SDS011;8614;48.522;9.206;2023-01-09T14:43:49;9.60;;;9.10;;
16994;SDS011;8614;48.522;9.206;2023-01-09T14:46:19;10.87;;;10.20;;
16994;SDS011;8614;48.522;9.206;2023-01-09T14:51:37;10.43;;;9.80;;
16994;SDS011;8614;48.522;9.206;2023-01-09T14:54:13;10.37;;;9.77;;
16994;SDS011;8614;48.522;9.206;2023-01-09T14:56:49;10.60;;;10.00;;
16994;SDS011;8614;48.522;9.206;2023-01-09T14:59:18;10.87;;;10.13;;
16994;SDS011;8614;48.522;9.206;2023-01-09T15:01:45;10.70;;;10.10;;
16994;SDS011;8614;48.522;9.206;2023-01-09T15:04:19;10.53;;;9.93;;
16994;SDS011;8614;48.522;9.206;2023-01-09T15:06:50;10.63;;;10.07;;
16994;SDS011;8614;48.522;9.206;2023-01-09T15:09:19;11.20;;;10.30;;
16994;SDS011;8614;48.522;9.206;2023-01-09T15:11:50;10.60;;;10.00;;
16994;SDS011;8614;48.522;9.206;2023-01-09T15:14:23;10.77;;;10.17;;
16994;SDS011;8614;48.522;9.206;2023-01-09T15:16:55;11.13;;;10.33;;
16994;SDS011;8614;48.522;9.206;2023-01-09T15:19:22;10.87;;;10.27;;
16994;SDS011;8614;48.522;9.206;2023-01-09T15:21:56;11.00;;;10.40;;
16994;SDS011;8614;48.522;9.206;2023-01-09T15:24:25;11.10;;;10.40;;
16994;SDS011;8614;48.522;9.206;2023-01-09T15:26:54;11.13;;;10.47;;
16994;SDS011;8614;48.522;9.206;2023-01-09T15:29:24;11.43;;;10.63;;
16994;SDS011;8614;48.522;9.206;2023-01-09T15:31:52;12.37;;;11.67;;
16994;SDS011;8614;48.522;9.206;2023-01-09T15:34:22;12.10;;;11.40;;
16994;SDS011;8614;48.522;9.206;2023-01-09T15:36:50;12.10;;;11.40;;
16994;SDS011;8614;48.522;9.206;2023-01-09T15:39:19;12.00;;;11.30;;
16994;SDS011;8614;48.522;9.206;2023-01-09T15:41:48;12.10;;;11.40;;
16994;SDS011;8614;48.522;9.206;2023-01-09T15:44:35;12.27;;;11.37;;
16994;SDS011;8614;48.522;9.206;2023-01-09T15:47:05;11.90;;;11.23;;
16994;SDS011;8614;48.522;9.206;2023-01-09T15:49:33;11.80;;;11.10;;
16994;SDS011;8614;48.522;9.206;2023-01-09T15:52:01;11.87;;;11.20;;
16994;SDS011;8614;48.522;9.206;2023-01-09T15:54:29;12.10;;;11.30;;
16994;SDS011;8614;48.522;9.206;2023-01-09T15:59:56;11.60;;;10.90;;
16994;SDS011;8614;48.522;9.206;2023-01-09T16:02:44;11.40;;;10.80;;
16994;SDS011;8614;48.522;9.206;2023-01-09T16:05:30;11.93;;;11.23;;
16994;SDS011;8614;48.522;9.206;2023-01-09T16:07:57;11.60;;;10.90;;
16994;SDS011;8614;48.522;9.206;2023-01-09T16:10:27;11.63;;;10.93;;
16994;SDS011;8614;48.522;9.206;2023-01-09T16:12:58;11.70;;;11.00;;
16994;SDS011;8614;48.522;9.206;2023-01-09T16:15:26;12.17;;;11.37;;
16994;SDS011;8614;48.522;9.206;2023-01-09T16:18:05;12.70;;;11.00;;
16994;SDS011;8614;48.522;9.206;2023-01-09T16:20:32;11.23;;;10.50;;
16994;SDS011;8614;48.522;9.206;2023-01-09T16:22:59;11.43;;;10.80;;
16994;SDS011;8614;48.522;9.206;2023-01-09T16:25:27;11.10;;;10.40;;
16994;SDS011;8614;48.522;9.206;2023-01-09T16:28:08;11.23;;;10.63;;
16994;SDS011;8614;48.522;9.206;2023-01-09T16:30:48;11.10;;;10.50;;
16994;SDS011;8614;48.522;9.206;2023-01-09T16:33:20;11.83;;;11.13;;
16994;SDS011;8614;48.522;9.206;2023-01-09T16:35:48;10.90;;;10.30;;
16994;SDS011;8614;48.522;9.206;2023-01-09T16:38:15;11.30;;;10.50;;
16994;SDS011;8614;48.522;9.206;2023-01-09T16:40:58;11.30;;;10.70;;
16994;SDS011;8614;48.522;9.206;2023-01-09T16:43:47;11.70;;;11.00;;
16994;SDS011;8614;48.522;9.206;2023-01-09T16:46:15;11.57;;;10.77;;
16994;SDS011;8614;48.522;9.206;2023-01-09T16:48:44;11.40;;;10.70;;
16994;SDS011;8614;48.522;9.206;2023-01-09T16:51:12;11.80;;;11.10;;
16994;SDS011;8614;48.522;9.206;2023-01-09T16:53:41;11.37;;;10.67;;
16994;SDS011;8614;48.522;9.206;2023-01-09T16:56:10;11.70;;;11.00;;
16994;SDS011;8614;48.522;9.206;2023-01-09T16:58:39;12.07;;;11.27;;
16994;SDS011;8614;48.522;9.206;2023-01-09T17:01:06;11.77;;;10.97;;
16994;SDS011;8614;48.522;9.206;2023-01-09T17:03:34;12.73;;;11.83;;
16994;SDS011;8614;48.522;9.206;2023-01-09T17:06:02;11.83;;;11.13;;
16994;SDS011;8614;48.522;9.206;2023-01-09T17:08:31;12.10;;;11.20;;
16994;SDS011;8614;48.522;9.206;2023-01-09T17:11:00;12.90;;;12.00;;
16994;SDS011;8614;48.522;9.206;2023-01-09T17:13:28;12.13;;;11.30;;
16994;SDS011;8614;48.522;9.206;2023-01-09T17:15:55;11.90;;;11.10;;
16994;SDS011;8614;48.522;9.206;2023-01-09T17:18:24;11.53;;;10.73;;
16994;SDS011;8614;48.522;9.206;2023-01-09T17:20:53;11.93;;;11.17;;
16994;SDS011;8614;48.522;9.206;2023-01-09T17:23:22;11.80;;;11.00;;
16994;SDS011;8614;48.522;9.206;2023-01-09T17:25:52;13.23;;;12.23;;
16994;SDS011;8614;48.522;9.206;2023-01-09T17:28:38;13.70;;;12.30;;
16994;SDS011;8614;48.522;9.206;2023-01-09T17:31:08;13.07;;;11.97;;
16994;SDS011;8614;48.522;9.206;2023-01-09T17:33:37;12.53;;;11.63;;
16994;SDS011;8614;48.522;9.206;2023-01-09T17:36:05;14.20;;;12.90;;
16994;SDS011;8614;48.522;9.206;2023-01-09T17:38:39;12.70;;;11.53;;
16994;SDS011;8614;48.522;9.206;2023-01-09T17:41:06;17.87;;;16.17;;
16994;SDS011;8614;48.522;9.206;2023-01-09T17:43:33;15.53;;;14.17;;
16994;SDS011;8614;48.522;9.206;2023-01-09T17:46:00;14.03;;;12.93;;
16994;SDS011;8614;48.522;9.206;2023-01-09T17:48:27;21.53;;;19.57;;
16994;SDS011;8614;48.522;9.206;2023-01-09T17:50:54;19.23;;;17.50;;
16994;SDS011;8614;48.522;9.206;2023-01-09T17:53:23;16.73;;;15.40;;
16994;SDS011;8614;48.522;9.206;2023-01-09T17:55:51;13.80;;;12.70;;
16994;SDS011;8614;48.522;9.206;2023-01-09T17:58:23;12.27;;;11.47;;
16994;SDS011;8614;48.522;9.206;2023-01-09T18:00:53;12.37;;;11.47;;
16994;SDS011;8614;48.522;9.206;2023-01-09T18:03:19;11.70;;;10.90;;
16994;SDS011;8614;48.522;9.206;2023-01-09T18:05:48;11.47;;;10.77;;
16994;SDS011;8614;48.522;9.206;2023-01-09T18:08:15;11.40;;;10.70;;
16994;SDS011;8614;48.522;9.206;2023-01-09T18:10:42;11.40;;;10.70;;
16994;SDS011;8614;48.522;9.206;2023-01-09T18:13:15;11.07;;;10.47;;
16994;SDS011;8614;48.522;9.206;2023-01-09T18:15:43;11.23;;;10.63;;
16994;SDS011;8614;48.522;9.206;2023-01-09T18:18:10;13.00;;;12.00;;
16994;SDS011;8614;48.522;9.206;2023-01-09T18:20:37;11.93;;;11.13;;
16994;SDS011;8614;48.522;9.206;2023-01-09T18:23:04;21.20;;;18.20;;
16994;SDS011;8614;48.522;9.206;2023-01-09T18:25:31;14.57;;;13.17;;